Time;durP1;ratioP1;P1;durP2;ratioP2;P2;SDS_P1;SDS_P2;PMS_P1;PMS_P2;Temp;Humidity;BMP_temperature;BMP_pressure;BME280_temperature;BME280_humidity;BME280_pressure;Samples;Min_cycle;Max_cycle;Signal;HPM_P1;HPM_P2
2022/07/11 00:01:10;;;;;;;;;;;;;;;22.26;39.43;96298.97;10513648;28;1905;-61
2022/07/11 00:06:11;;;;;;;;;;;;;;;22.25;39.54;96287.66;10513750;28;1835;-59
2022/07/11 00:11:12;;;;;;;;;;;;;;;22.26;39.42;96281.28;10512844;28;2012;-57
2022/07/11 00:16:13;;;;;;;;;;;;;;;22.25;39.53;96277.09;10509655;28;1898;-57
2022/07/11 00:21:13;;;;;;;;;;;;;;;22.25;39.48;96271.00;10505871;28;2017;-58
2022/07/11 00:26:14;;;;;;;;;;;;;;;22.24;39.43;96269.41;10510492;28;1876;-60
2022/07/11 00:31:15;;;;;;;;;;;;;;;22.24;39.78;96272.06;10511320;28;1749;-62
2022/07/11 00:36:16;;;;;;;;;;;;;;;22.24;39.91;96269.41;10494197;28;1949;-56
2022/07/11 00:41:19;;;;;;;;;;;;;;;22.25;39.68;96269.16;10506839;28;2015;-56
2022/07/11 00:46:20;;;;;;;;;;;;;;;22.24;39.79;96264.94;10508376;28;2009;-62
2022/07/11 00:51:21;;;;;;;;;;;;;;;22.24;39.87;96258.84;10510753;28;1928;-62
2022/07/11 00:56:22;;;;;;;;;;;;;;;22.23;39.85;96258.09;10506562;28;2245;-58
2022/07/11 01:01:23;;;;;;;;;;;;;;;22.22;39.66;96250.41;10508224;28;2026;-59
2022/07/11 01:06:23;;;;;;;;;;;;;;;22.25;39.60;96255.97;10503673;28;1953;-59
2022/07/11 01:11:24;;;;;;;;;;;;;;;22.25;39.71;96249.88;10504592;28;2032;-61
2022/07/11 01:16:25;;;;;;;;;;;;;;;22.25;39.63;96244.59;10501180;28;1860;-61
2022/07/11 01:21:27;;;;;;;;;;;;;;;22.25;39.65;96242.75;10505719;28;2016;-61
2022/07/11 01:26:28;;;;;;;;;;;;;;;22.23;39.75;96247.53;10506125;28;1877;-59
2022/07/11 01:31:29;;;;;;;;;;;;;;;22.26;39.60;96243.53;10468620;28;1093351;-60
2022/07/11 01:36:31;;;;;;;;;;;;;;;22.24;39.70;96233.25;10507097;28;2015;-57
2022/07/11 01:41:31;;;;;;;;;;;;;;;22.23;39.72;96236.97;10506293;28;1981;-59
2022/07/11 01:46:32;;;;;;;;;;;;;;;22.24;39.76;96235.09;10510173;28;1910;-60
2022/07/11 01:51:32;;;;;;;;;;;;;;;22.23;39.77;96238.81;10504711;28;1896;-54
2022/07/11 01:56:33;;;;;;;;;;;;;;;22.24;39.90;96232.44;10504540;28;1884;-57
2022/07/11 02:01:33;;;;;;;;;;;;;;;22.26;39.95;96233.75;10507951;28;1973;-60
2022/07/11 02:06:34;;;;;;;;;;;;;;;22.24;39.89;96227.97;10502467;28;1919;-61
2022/07/11 02:11:34;;;;;;;;;;;;;;;22.24;40.03;96222.69;10501584;28;1784;-58
2022/07/11 02:16:34;;;;;;;;;;;;;;;22.26;40.03;96220.56;10504274;28;1827;-58
2022/07/11 02:21:36;;;;;;;;;;;;;;;22.25;40.09;96226.91;10487138;28;1968;-58
2022/07/11 02:26:36;;;;;;;;;;;;;;;22.25;40.03;96223.47;10507492;28;1839;-62
2022/07/11 02:31:36;;;;;;;;;;;;;;;22.24;40.19;96219.25;10512070;28;1774;-61
2022/07/11 02:36:36;;;;;;;;;;;;;;;22.23;39.93;96220.31;10508061;28;1830;-57
2022/07/11 02:41:37;;;;;;;;;;;;;;;22.24;40.13;96221.88;10487085;28;2104;-61
2022/07/11 02:46:37;;;;;;;;;;;;;;;22.23;40.01;96218.47;10502490;28;1756;-61
2022/07/11 02:51:38;;;;;;;;;;;;;;;22.21;40.06;96217.97;10507922;28;2080;-60
2022/07/11 02:56:38;;;;;;;;;;;;;;;22.23;40.15;96218.47;10502193;28;1949;-59
2022/07/11 03:01:40;;;;;;;;;;;;;;;22.22;39.96;96214.25;10507215;28;1910;-59
2022/07/11 03:06:40;;;;;;;;;;;;;;;22.22;40.14;96213.44;10505900;28;1828;-61
2022/07/11 03:11:41;;;;;;;;;;;;;;;22.21;40.26;96212.69;10504256;28;2032;-60
2022/07/11 03:16:42;;;;;;;;;;;;;;;22.22;40.20;96214.25;10507346;28;1803;-59
2022/07/11 03:21:42;;;;;;;;;;;;;;;22.18;40.17;96218.50;10506196;28;1910;-58
2022/07/11 03:26:43;;;;;;;;;;;;;;;22.21;40.00;96214.53;10502411;28;1631;-57
2022/07/11 03:31:43;;;;;;;;;;;;;;;22.20;40.25;96213.72;10505836;28;1520;-60
2022/07/11 03:36:47;;;;;;;;;;;;;;;22.21;39.90;96217.97;10505693;28;1524;-60
2022/07/11 03:41:48;;;;;;;;;;;;;;;22.20;40.15;96216.38;10503009;28;1938;-61
2022/07/11 03:46:48;;;;;;;;;;;;;;;22.19;39.89;96214.81;10503926;28;2040;-61
2022/07/11 03:51:48;;;;;;;;;;;;;;;22.19;40.02;96206.88;10504250;28;1828;-60
2022/07/11 03:56:49;;;;;;;;;;;;;;;22.19;39.85;96206.88;10498680;28;2516;-61
2022/07/11 04:01:49;;;;;;;;;;;;;;;22.20;39.92;96212.94;10505241;28;1993;-59
2022/07/11 04:06:49;;;;;;;;;;;;;;;22.19;40.28;96206.09;10498856;28;1775;-57
2022/07/11 04:11:49;;;;;;;;;;;;;;;22.19;40.12;96214.00;10501842;28;1615;-59
2022/07/11 04:16:51;;;;;;;;;;;;;;;22.19;40.10;96217.44;10510944;28;1441;-62
2022/07/11 04:21:52;;;;;;;;;;;;;;;22.19;40.20;96209.53;10494721;28;1910;-60
2022/07/11 04:26:53;;;;;;;;;;;;;;;22.21;40.10;96217.97;10510643;28;1831;-59
2022/07/11 04:31:53;;;;;;;;;;;;;;;22.21;40.22;96217.97;10505124;28;1824;-55
2022/07/11 04:36:54;;;;;;;;;;;;;;;22.19;39.94;96220.09;10508699;28;1918;-56
2022/07/11 04:41:54;;;;;;;;;;;;;;;22.21;40.10;96220.59;10507646;28;1983;-60
2022/07/11 04:46:55;;;;;;;;;;;;;;;22.20;40.07;96216.38;10513159;28;1884;-61
2022/07/11 04:51:56;;;;;;;;;;;;;;;22.20;40.14;96224.28;10503719;28;1913;-58
2022/07/11 04:56:56;;;;;;;;;;;;;;;22.22;40.05;96222.16;10507437;28;1835;-60
2022/07/11 05:01:56;;;;;;;;;;;;;;;22.23;39.97;96229.03;10510346;28;1905;-60
2022/07/11 05:06:57;;;;;;;;;;;;;;;22.23;40.04;96225.59;10510387;28;1911;-61
2022/07/11 05:11:57;;;;;;;;;;;;;;;22.24;40.04;96233.25;10509175;28;1894;-60
2022/07/11 05:16:57;;;;;;;;;;;;;;;22.23;40.27;96231.69;10510618;28;1748;-61
2022/07/11 05:21:57;;;;;;;;;;;;;;;22.23;40.33;96236.97;10509712;28;2013;-61
2022/07/11 05:26:58;;;;;;;;;;;;;;;22.25;40.27;96240.13;10510942;28;2206;-61
2022/07/11 05:31:58;;;;;;;;;;;;;;;22.24;40.35;96246.44;10504850;28;2070;-58
2022/07/11 05:36:58;;;;;;;;;;;;;;;22.25;40.42;96241.97;10508188;28;1804;-58
2022/07/11 05:41:58;;;;;;;;;;;;;;;22.25;40.07;96244.59;10507181;28;1914;-56
2022/07/11 05:47:01;;;;;;;;;;;;;;;22.27;40.11;96245.13;10501974;28;1913;-57
2022/07/11 05:52:01;;;;;;;;;;;;;;;22.26;40.49;96246.16;10508303;28;2028;-55
2022/07/11 05:57:02;;;;;;;;;;;;;;;22.26;40.32;96246.97;10506641;28;2032;-62
2022/07/11 06:02:02;;;;;;;;;;;;;;;22.27;40.25;96251.19;10504913;28;1910;-61
2022/07/11 06:07:03;;;;;;;;;;;;;;;22.27;40.26;96248.56;10504039;28;1925;-62
2022/07/11 06:12:03;;;;;;;;;;;;;;;22.28;40.47;96241.41;10506250;28;1969;-58
2022/07/11 06:17:04;;;;;;;;;;;;;;;22.27;40.29;96240.63;10497499;28;1814;-57
2022/07/11 06:22:04;;;;;;;;;;;;;;;22.27;40.66;96230.06;10494779;28;2308;-57
2022/07/11 06:27:05;;;;;;;;;;;;;;;22.31;40.30;96244.31;10498118;28;1869;-62
2022/07/11 06:32:05;;;;;;;;;;;;;;;22.32;41.02;96248.50;10493380;28;1837;-62
2022/07/11 06:37:06;;;;;;;;;;;;;;;22.36;41.04;96236.34;10509337;28;1802;-61
2022/07/11 06:42:07;;;;;;;;;;;;;;;22.40;41.38;96242.66;10493762;28;1910;-61
2022/07/11 06:47:07;;;;;;;;;;;;;;;22.40;41.32;96250.56;10494915;28;2015;-60
2022/07/11 06:52:07;;;;;;;;;;;;;;;22.45;41.32;96242.63;10504956;28;1949;-58
2022/07/11 06:57:08;;;;;;;;;;;;;;;22.45;41.85;96244.47;10498371;28;1876;-59
2022/07/11 07:02:08;;;;;;;;;;;;;;;22.46;41.70;96241.56;10500792;28;1910;-61
2022/07/11 07:07:08;;;;;;;;;;;;;;;22.48;41.58;96247.38;10506842;28;2320;-60
2022/07/11 07:12:09;;;;;;;;;;;;;;;22.49;41.86;96248.16;10498029;28;1827;-61
2022/07/11 07:17:09;;;;;;;;;;;;;;;22.50;41.68;96247.13;10505701;28;1811;-60
2022/07/11 07:22:10;;;;;;;;;;;;;;;22.50;41.92;96247.88;10497980;28;1926;-58
2022/07/11 07:27:11;;;;;;;;;;;;;;;22.51;41.97;96249.47;10499207;28;1969;-55
2022/07/11 07:32:11;;;;;;;;;;;;;;;22.51;41.85;96246.81;10502226;28;1843;-57
2022/07/11 07:37:11;;;;;;;;;;;;;;;22.53;42.06;96257.91;10506147;28;1768;-61
2022/07/11 07:42:12;;;;;;;;;;;;;;;22.54;41.81;96254.22;10502329;28;1984;-58
2022/07/11 07:47:12;;;;;;;;;;;;;;;22.54;42.02;96254.22;10501302;28;1855;-59
2022/07/11 07:52:12;;;;;;;;;;;;;;;22.56;42.14;96246.00;10503118;28;1811;-57
2022/07/11 07:57:13;;;;;;;;;;;;;;;22.56;42.26;96252.09;10504567;28;1794;-58
2022/07/11 08:02:13;;;;;;;;;;;;;;;22.58;42.38;96250.00;10505504;28;1980;-60
2022/07/11 08:07:13;;;;;;;;;;;;;;;22.59;42.37;96240.19;10510376;28;1807;-59
2022/07/11 08:12:14;;;;;;;;;;;;;;;22.61;42.17;96248.63;10510038;28;2130;-59
2022/07/11 08:17:14;;;;;;;;;;;;;;;22.61;42.46;96246.00;10512438;28;1873;-60
2022/07/11 08:22:14;;;;;;;;;;;;;;;22.62;42.19;96248.38;10511970;28;1981;-58
2022/07/11 08:27:15;;;;;;;;;;;;;;;22.62;42.37;96245.75;10514166;28;2008;-60
2022/07/11 08:32:15;;;;;;;;;;;;;;;22.63;42.44;96246.50;10511283;28;1805;-58
2022/07/11 08:37:15;;;;;;;;;;;;;;;22.64;42.58;96242.81;10509163;28;1824;-58
2022/07/11 08:42:18;;;;;;;;;;;;;;;22.63;42.42;96255.22;10510366;28;1925;-60
2022/07/11 08:47:18;;;;;;;;;;;;;;;22.64;42.60;96243.63;10511203;28;1795;-59
2022/07/11 08:52:19;;;;;;;;;;;;;;;22.65;42.47;96247.81;10507223;28;1917;-60
2022/07/11 08:57:20;;;;;;;;;;;;;;;22.66;42.76;96243.34;10503730;28;2342;-55
2022/07/11 09:02:21;;;;;;;;;;;;;;;22.65;42.78;96239.91;10502419;28;1929;-59
2022/07/11 09:07:21;;;;;;;;;;;;;;;22.62;42.72;96240.47;10507034;28;1840;-60
2022/07/11 09:12:22;;;;;;;;;;;;;;;22.65;42.75;96242.53;10500325;28;1780;-63
2022/07/11 09:17:29;;;;;;;;;;;;;;;22.67;42.81;96240.41;10512832;28;1858;-61
2022/07/11 09:27:49;;;;;;;;;;;;;;;22.69;42.91;96239.34;10498438;28;1821;-62
2022/07/11 09:33:12;;;;;;;;;;;;;;;22.71;42.98;96237.22;10508769;28;1577;-60
2022/07/11 09:38:16;;;;;;;;;;;;;;;22.71;43.08;96239.88;10513097;28;1953;-57
2022/07/11 09:43:23;;;;;;;;;;;;;;;22.71;43.03;96239.88;10507215;28;1906;-59
2022/07/11 09:48:23;;;;;;;;;;;;;;;22.71;42.73;96240.63;10507240;28;1864;-58
2022/07/11 09:53:23;;;;;;;;;;;;;;;22.72;43.09;96238.78;10490361;28;1819;-57
2022/07/11 09:58:28;;;;;;;;;;;;;;;22.72;42.96;96230.88;10506568;28;1825;-57
2022/07/11 10:03:29;;;;;;;;;;;;;;;22.67;43.22;96237.75;10505567;28;1918;-61
2022/07/11 10:08:33;;;;;;;;;;;;;;;22.67;43.12;96242.25;10486698;28;1842;-57
2022/07/11 10:13:34;;;;;;;;;;;;;;;22.66;43.54;96240.69;10498343;28;1863;-57
2022/07/11 10:18:42;;;;;;;;;;;;;;;22.70;43.60;96233.00;10507052;28;1926;-58
2022/07/11 10:23:54;;;;;;;;;;;;;;;22.67;43.97;96230.91;10503201;28;1914;-61
2022/07/11 10:28:55;;;;;;;;;;;;;;;22.65;44.13;96234.59;10509627;28;1863;-60
2022/07/11 10:34:00;;;;;;;;;;;;;;;22.62;41.93;96244.94;10483990;28;1896;-58
2022/07/11 10:39:12;;;;;;;;;;;;;;;22.50;41.17;96244.47;10496708;28;1848;-60
2022/07/11 10:44:14;;;;;;;;;;;;;;;22.51;41.71;96244.19;10471714;28;1963;-57
2022/07/11 10:49:14;;;;;;;;;;;;;;;22.50;41.40;96242.59;10492910;28;1792;-55
2022/07/11 10:54:18;;;;;;;;;;;;;;;22.59;41.97;96235.72;10496985;28;1872;-58
2022/07/11 10:59:19;;;;;;;;;;;;;;;22.62;42.36;96237.81;10498800;28;1851;-57
2022/07/11 11:04:40;;;;;;;;;;;;;;;22.61;42.34;96248.63;10498693;28;1921;-60
2022/07/11 11:09:40;;;;;;;;;;;;;;;22.65;42.31;96242.53;10502116;28;1858;-57
2022/07/11 11:14:41;;;;;;;;;;;;;;;22.65;42.36;96241.75;10498300;28;1919;-61
2022/07/11 11:19:47;;;;;;;;;;;;;;;22.63;42.77;96242.03;10505089;28;1855;-59
2022/07/11 11:24:49;;;;;;;;;;;;;;;22.65;42.57;96242.53;10501902;28;1909;-56
2022/07/11 11:29:49;;;;;;;;;;;;;;;22.65;42.57;96239.91;10498739;28;1824;-59
2022/07/11 11:34:50;;;;;;;;;;;;;;;22.64;42.60;96237.53;10492505;28;1930;-58
2022/07/11 11:39:54;;;;;;;;;;;;;;;22.62;42.97;96243.09;10504262;28;1847;-59
2022/07/11 11:44:59;;;;;;;;;;;;;;;22.59;43.17;96246.28;10504432;28;1994;-59
2022/07/11 11:49:59;;;;;;;;;;;;;;;22.61;43.13;96243.34;10512676;28;1761;-60
2022/07/11 11:54:59;;;;;;;;;;;;;;;22.61;43.20;96248.63;10507233;28;1847;-54
2022/07/11 12:00:00;;;;;;;;;;;;;;;22.60;42.88;96245.22;10507274;28;1793;-58
2022/07/11 12:05:06;;;;;;;;;;;;;;;22.64;43.05;96253.38;10511526;28;1982;-59
2022/07/11 12:10:07;;;;;;;;;;;;;;;22.62;43.13;96244.94;10508300;28;1849;-60
2022/07/11 12:15:22;;;;;;;;;;;;;;;22.64;42.88;96243.63;10508838;28;1789;-57
2022/07/11 12:20:38;;;;;;;;;;;;;;;22.62;43.28;96243.09;10505080;28;1910;-59
2022/07/11 12:25:42;;;;;;;;;;;;;;;22.62;43.30;96235.19;10508904;28;1902;-58
2022/07/11 12:30:42;;;;;;;;;;;;;;;22.61;43.03;96232.78;10512135;28;1835;-58
2022/07/11 12:35:53;;;;;;;;;;;;;;;22.61;43.20;96233.59;10507495;28;1795;-57
2022/07/11 12:41:12;;;;;;;;;;;;;;;22.60;43.18;96226.72;10511897;28;1883;-59
2022/07/11 12:46:13;;;;;;;;;;;;;;;22.61;43.06;96228.28;10504499;28;1918;-56
2022/07/11 12:51:25;;;;;;;;;;;;;;;22.60;43.33;96226.72;10505043;28;1807;-57
2022/07/11 12:56:26;;;;;;;;;;;;;;;22.64;43.42;96230.41;10503178;28;1850;-61
2022/07/11 13:01:27;;;;;;;;;;;;;;;22.64;43.44;96221.69;10506033;28;1973;-60
2022/07/11 13:11:48;;;;;;;;;;;;;;;22.64;43.46;96219.84;10503737;28;1816;-59
2022/07/11 13:16:48;;;;;;;;;;;;;;;22.64;43.48;96203.19;10501308;28;1816;-60
2022/07/11 13:21:49;;;;;;;;;;;;;;;22.65;43.23;96213.47;10502785;28;2013;-60
2022/07/11 13:26:49;;;;;;;;;;;;;;;22.65;43.47;96208.19;10501126;28;1800;-57
2022/07/11 13:31:49;;;;;;;;;;;;;;;22.67;43.22;96207.13;10500726;28;1816;-58
2022/07/11 13:36:50;;;;;;;;;;;;;;;22.67;43.68;96206.06;10495936;28;1867;-62
2022/07/11 13:41:50;;;;;;;;;;;;;;;22.67;43.54;96201.84;10503495;28;1910;-59
2022/07/11 13:46:51;;;;;;;;;;;;;;;22.65;43.42;96197.63;10497548;28;1881;-60
2022/07/11 13:51:52;;;;;;;;;;;;;;;22.65;43.77;96192.31;10507119;28;1827;-59
2022/07/11 13:56:52;;;;;;;;;;;;;;;22.66;43.42;96195.78;10503452;28;1822;-60
2022/07/11 14:01:53;;;;;;;;;;;;;;;22.65;43.53;96197.63;10508791;28;1991;-59
2022/07/11 14:06:53;;;;;;;;;;;;;;;22.67;43.75;96196.56;10500736;28;1752;-61
2022/07/11 14:11:54;;;;;;;;;;;;;;;22.65;43.68;96197.63;10504862;28;1787;-61
2022/07/11 14:16:54;;;;;;;;;;;;;;;22.65;43.44;96200.25;10499888;28;1826;-60
2022/07/11 14:21:55;;;;;;;;;;;;;;;22.65;43.78;96188.88;10500744;28;1988;-59
2022/07/11 14:26:55;;;;;;;;;;;;;;;22.67;43.68;96199.22;10508550;28;1882;-58
2022/07/11 14:31:55;;;;;;;;;;;;;;;22.65;43.83;96189.69;10487666;28;1799;-59
2022/07/11 14:36:56;;;;;;;;;;;;;;;22.65;43.78;96187.03;10504328;28;2335;-55
2022/07/11 14:41:56;;;;;;;;;;;;;;;22.65;43.71;96183.59;10497087;28;1987;-56
2022/07/11 14:46:56;;;;;;;;;;;;;;;22.65;43.79;96180.97;10497056;28;1705;-55
2022/07/11 14:51:57;;;;;;;;;;;;;;;22.64;43.54;96189.97;10496145;28;1854;-57
2022/07/11 14:56:57;;;;;;;;;;;;;;;22.63;43.61;96191.81;10501130;28;1863;-54
2022/07/11 15:01:58;;;;;;;;;;;;;;;22.63;43.89;96189.16;10494044;28;1918;-58
2022/07/11 15:12:21;;;;;;;;;;;;;;;22.64;43.74;96180.19;10490072;28;1919;-56
2022/07/11 15:17:22;;;;;;;;;;;;;;;22.64;43.79;96184.69;10497257;28;1844;-58
2022/07/11 15:22:23;;;;;;;;;;;;;;;22.63;43.57;96178.59;10490690;28;1890;-59
2022/07/11 15:27:23;;;;;;;;;;;;;;;22.65;43.85;96187.03;10501559;28;1892;-58
2022/07/11 15:32:24;;;;;;;;;;;;;;;22.67;43.55;96181.47;10495045;28;1863;-58
2022/07/11 15:37:25;;;;;;;;;;;;;;;22.67;43.89;96181.47;10494958;28;1534;-59
2022/07/11 15:42:26;;;;;;;;;;;;;;;22.70;43.76;96190.72;10503539;28;1986;-56
2022/07/11 15:47:27;;;;;;;;;;;;;;;22.72;43.72;96185.94;10504620;28;1870;-59
2022/07/11 15:52:28;;;;;;;;;;;;;;;22.73;43.79;96192.81;10501334;28;1784;-58
2022/07/11 15:57:28;;;;;;;;;;;;;;;22.79;43.65;96191.72;10502823;28;1787;-60
2022/07/11 16:02:31;;;;;;;;;;;;;;;22.81;43.61;96184.28;10506051;28;1981;-59
2022/07/11 16:07:31;;;;;;;;;;;;;;;22.79;43.67;96184.56;10504991;28;1792;-59
2022/07/11 16:12:31;;;;;;;;;;;;;;;22.80;43.38;96185.34;10495978;28;1791;-56
2022/07/11 16:17:33;;;;;;;;;;;;;;;22.81;43.47;96194.88;10500968;28;1855;-57
2022/07/11 16:22:33;;;;;;;;;;;;;;;22.79;43.48;96192.50;10496942;28;1914;-58
2022/07/11 16:27:34;;;;;;;;;;;;;;;22.79;43.36;96197.78;10504424;28;1799;-56
2022/07/11 16:32:35;;;;;;;;;;;;;;;22.78;43.57;96192.75;10505297;28;1808;-60
2022/07/11 16:37:35;;;;;;;;;;;;;;;22.78;43.24;96196.19;10496552;28;1856;-59
2022/07/11 16:47:54;;;;;;;;;;;;;;;22.81;43.32;96205.44;10504562;28;1800;-61
2022/07/11 16:52:54;;;;;;;;;;;;;;;22.80;43.31;96207.28;10503993;28;1746;-60
2022/07/11 16:57:55;;;;;;;;;;;;;;;22.80;43.44;96219.69;10505292;28;1903;-59
2022/07/11 17:02:55;;;;;;;;;;;;;;;22.76;43.55;96216.84;10495783;28;1990;-59
2022/07/11 17:13:15;;;;;;;;;;;;;;;22.80;43.63;96219.69;10504917;28;1787;-57
2022/07/11 17:18:15;;;;;;;;;;;;;;;22.82;44.03;96212.28;10502795;28;1804;-58
2022/07/11 17:23:15;;;;;;;;;;;;;;;22.79;44.34;96228.72;10498474;28;1976;-58
2022/07/11 17:28:16;;;;;;;;;;;;;;;22.80;44.31;96223.13;10500215;28;1811;-61
2022/07/11 17:33:16;;;;;;;;;;;;;;;22.85;43.93;96206.47;10508634;28;1752;-63
2022/07/11 17:38:21;;;;;;;;;;;;;;;22.86;44.09;96216.75;10508530;28;1863;-59
2022/07/11 17:43:21;;;;;;;;;;;;;;;22.87;44.11;96222.81;10507031;28;1999;-59
2022/07/11 17:48:25;;;;;;;;;;;;;;;22.83;44.52;96227.09;10509533;28;1803;-61
2022/07/11 17:53:26;;;;;;;;;;;;;;;22.82;44.36;96236.06;10505922;28;1820;-58
2022/07/11 17:58:26;;;;;;;;;;;;;;;22.82;44.54;96241.34;10503197;28;2084;-59
2022/07/11 18:03:26;;;;;;;;;;;;;;;22.84;44.40;96237.38;10490706;28;1985;-63
2022/07/11 18:08:28;;;;;;;;;;;;;;;22.84;44.35;96236.59;10496138;28;1852;-60
2022/07/11 18:13:28;;;;;;;;;;;;;;;22.78;44.67;96230.56;10489002;28;1840;-61
2022/07/11 18:18:29;;;;;;;;;;;;;;;22.85;43.95;96227.59;10492741;28;1911;-57
2022/07/11 18:23:29;;;;;;;;;;;;;;;22.84;44.16;96226.00;10494003;28;1909;-59
2022/07/11 18:28:29;;;;;;;;;;;;;;;22.83;44.39;96235.81;10500693;28;1963;-62
2022/07/11 18:33:29;;;;;;;;;;;;;;;22.85;43.99;96235.53;10502346;28;1952;-58
2022/07/11 18:38:30;;;;;;;;;;;;;;;22.81;44.19;96242.44;10497455;28;1886;-57
2022/07/11 18:43:58;;;;;;;;;;;;;;;22.77;44.54;96247.50;10493414;28;2204;-57
2022/07/11 18:48:50;;;;;;;;;;;;;;;22.83;44.07;96253.53;10495327;28;1884;-62
2022/07/11 18:53:53;;;;;;;;;;;;;;;22.85;44.29;96252.19;10491724;28;1799;-62
2022/07/11 18:58:53;;;;;;;;;;;;;;;22.85;43.98;96260.13;10497689;28;1862;-61
2022/07/11 19:03:54;;;;;;;;;;;;;;;22.85;44.29;96252.19;10491991;28;1910;-59
2022/07/11 19:08:55;;;;;;;;;;;;;;;22.86;44.30;96260.88;10496779;28;1835;-59
2022/07/11 19:13:55;;;;;;;;;;;;;;;22.85;44.29;96264.63;10488724;28;1988;-59
2022/07/11 19:18:56;;;;;;;;;;;;;;;22.79;44.46;96266.50;10498151;28;1998;-64
2022/07/11 19:23:56;;;;;;;;;;;;;;;22.80;44.31;96262.00;10491552;28;1935;-64
2022/07/11 19:28:57;;;;;;;;;;;;;;;22.83;44.17;96269.38;10488712;28;1854;-62
2022/07/11 19:33:57;;;;;;;;;;;;;;;22.78;44.18;96275.50;10489995;28;1768;-55
2022/07/11 19:38:58;;;;;;;;;;;;;;;22.77;44.49;96273.13;10489118;28;1866;-57
2022/07/11 19:43:58;;;;;;;;;;;;;;;22.78;44.41;96275.50;10487367;28;1975;-59
2022/07/11 19:48:59;;;;;;;;;;;;;;;22.81;44.17;96280.25;10495126;28;1832;-59
2022/07/11 19:53:59;;;;;;;;;;;;;;;22.81;44.09;96284.72;10490025;28;1784;-57
2022/07/11 19:59:01;;;;;;;;;;;;;;;22.79;43.84;96297.44;10498325;28;1784;-58
2022/07/11 20:04:01;;;;;;;;;;;;;;;22.77;43.82;96300.34;10503219;28;1894;-60
2022/07/11 20:09:02;;;;;;;;;;;;;;;22.75;43.87;96299.03;10506643;28;1926;-57
2022/07/11 20:14:03;;;;;;;;;;;;;;;22.74;43.90;96300.88;10500714;28;1772;-57
2022/07/11 20:19:04;;;;;;;;;;;;;;;22.77;44.16;96295.06;10503381;28;1777;-59
2022/07/11 20:24:04;;;;;;;;;;;;;;;22.81;44.10;96298.75;10502679;28;1977;-59
2022/07/11 20:29:06;;;;;;;;;;;;;;;22.82;44.52;96302.16;10503988;28;1859;-56
2022/07/11 20:34:06;;;;;;;;;;;;;;;22.83;44.91;96301.09;10500401;28;1847;-56
2022/07/11 20:39:06;;;;;;;;;;;;;;;22.84;45.09;96311.41;10500563;28;1812;-60
2022/07/11 20:44:06;;;;;;;;;;;;;;;22.84;45.06;96306.09;10501738;28;2005;-60
2022/07/11 20:49:08;;;;;;;;;;;;;;;22.85;45.16;96304.25;10499252;28;1866;-60
2022/07/11 20:54:10;;;;;;;;;;;;;;;22.86;44.90;96308.47;10501881;28;1815;-56
2022/07/11 20:59:11;;;;;;;;;;;;;;;22.86;45.40;96309.28;10503482;28;1732;-58
2022/07/11 21:04:11;;;;;;;;;;;;;;;22.87;45.03;96310.06;10502857;28;1914;-56
2022/07/11 21:09:11;;;;;;;;;;;;;;;22.86;45.50;96311.13;10503370;28;1836;-60
2022/07/11 21:14:12;;;;;;;;;;;;;;;22.87;45.26;96310.06;10502455;28;1799;-58
2022/07/11 21:19:12;;;;;;;;;;;;;;;22.87;45.52;96312.72;10505985;28;2020;-58
2022/07/11 21:24:12;;;;;;;;;;;;;;;22.89;45.44;96315.88;10502067;28;1913;-56
2022/07/11 21:29:14;;;;;;;;;;;;;;;22.87;45.47;96315.34;10506814;28;1805;-59
2022/07/11 21:34:16;;;;;;;;;;;;;;;22.88;45.49;96319.56;10506008;28;1771;-57
2022/07/11 21:39:16;;;;;;;;;;;;;;;22.87;45.45;96315.34;10497848;28;1827;-59
2022/07/11 21:44:19;;;;;;;;;;;;;;;22.87;45.41;96321.44;10501548;28;1979;-58
2022/07/11 21:49:19;;;;;;;;;;;;;;;22.87;45.29;96320.63;10505348;28;3161;-56
2022/07/11 21:54:20;;;;;;;;;;;;;;;22.87;45.37;96318.78;10500948;28;1792;-61
2022/07/11 21:59:22;;;;;;;;;;;;;;;22.86;45.61;96322.47;10505005;28;1764;-59
2022/07/11 22:04:26;;;;;;;;;;;;;;;22.86;45.46;96322.47;10503268;28;1971;-62
2022/07/11 22:09:27;;;;;;;;;;;;;;;22.87;45.48;96325.91;10504721;28;1893;-60
2022/07/11 22:14:28;;;;;;;;;;;;;;;22.86;45.65;96321.69;10500903;28;1847;-58
2022/07/11 22:19:29;;;;;;;;;;;;;;;22.88;45.41;96330.94;10508772;28;1859;-61
2022/07/11 22:24:33;;;;;;;;;;;;;;;22.87;45.35;96318.00;10502335;28;1914;-61
2022/07/11 22:29:34;;;;;;;;;;;;;;;22.87;45.67;96318.78;10501972;28;1871;-56
2022/07/11 22:34:35;;;;;;;;;;;;;;;22.88;45.42;96317.72;10500603;28;1823;-58
2022/07/11 22:39:36;;;;;;;;;;;;;;;22.88;45.69;96314.28;10502246;28;1787;-58
2022/07/11 22:44:37;;;;;;;;;;;;;;;22.88;45.39;96311.63;10494586;28;1971;-60
2022/07/11 22:49:37;;;;;;;;;;;;;;;22.88;45.63;96308.97;10509041;28;1830;-60
2022/07/11 22:54:39;;;;;;;;;;;;;;;22.85;45.76;96307.69;10502886;28;1968;-58
2022/07/11 22:59:40;;;;;;;;;;;;;;;22.86;45.60;96313.75;10496489;28;1946;-57
2022/07/11 23:04:40;;;;;;;;;;;;;;;22.85;45.76;96312.19;10501701;28;1917;-57
2022/07/11 23:09:41;;;;;;;;;;;;;;;22.85;45.77;96306.91;10489628;28;1942;-57
2022/07/11 23:14:43;;;;;;;;;;;;;;;22.84;45.68;96300.03;10493401;28;1835;-58
2022/07/11 23:19:43;;;;;;;;;;;;;;;22.83;45.41;96303.75;10493990;28;1909;-58
2022/07/11 23:24:44;;;;;;;;;;;;;;;22.83;45.66;96298.47;10491628;28;1914;-58
2022/07/11 23:29:44;;;;;;;;;;;;;;;22.81;45.56;96290.00;10493633;28;1764;-57
2022/07/11 23:34:48;;;;;;;;;;;;;;;22.82;45.74;96294.22;10489642;28;1824;-61
2022/07/11 23:39:50;;;;;;;;;;;;;;;22.83;45.69;96298.47;10492027;28;1856;-59
2022/07/11 23:44:50;;;;;;;;;;;;;;;22.81;45.82;96290.81;10488601;28;1901;-57
2022/07/11 23:49:51;;;;;;;;;;;;;;;22.81;45.50;96295.31;10489779;28;1807;-58
2022/07/11 23:54:51;;;;;;;;;;;;;;;22.80;45.82;96291.06;10496811;28;1824;-61
2022/07/11 23:59:51;;;;;;;;;;;;;;;22.81;45.64;96290.00;10498791;28;1877;-56
